sensor_id;sensor_type;location;lat;lon;timestamp;P1;durP1;ratioP1;P2;durP2;ratioP2
8042;SDS011;4064;48.132;11.366;2023-09-30T00:01:00;18.83;;;11.30;;
8042;SDS011;4064;48.132;11.366;2023-09-30T00:03:26;22.50;;;11.20;;
8042;SDS011;4064;48.132;11.366;2023-09-30T00:06:02;25.47;;;13.87;;
8042;SDS011;4064;48.132;11.366;2023-09-30T00:08:32;24.60;;;13.07;;
8042;SDS011;4064;48.132;11.366;2023-09-30T00:10:57;22.70;;;11.87;;
8042;SDS011;4064;48.132;11.366;2023-09-30T00:13:23;23.20;;;12.43;;
8042;SDS011;4064;48.132;11.366;2023-09-30T00:15:49;24.80;;;13.70;;
8042;SDS011;4064;48.132;11.366;2023-09-30T00:18:14;22.40;;;12.07;;
8042;SDS011;4064;48.132;11.366;2023-09-30T00:20:40;25.23;;;12.33;;
8042;SDS011;4064;48.132;11.366;2023-09-30T00:23:06;27.27;;;15.80;;
8042;SDS011;4064;48.132;11.366;2023-09-30T00:25:32;26.93;;;12.93;;
8042;SDS011;4064;48.132;11.366;2023-09-30T00:27:58;28.33;;;12.70;;
8042;SDS011;4064;48.132;11.366;2023-09-30T00:30:24;24.03;;;12.03;;
8042;SDS011;4064;48.132;11.366;2023-09-30T00:32:49;24.33;;;13.20;;
8042;SDS011;4064;48.132;11.366;2023-09-30T00:35:15;27.47;;;14.23;;
8042;SDS011;4064;48.132;11.366;2023-09-30T00:37:41;24.90;;;12.80;;
8042;SDS011;4064;48.132;11.366;2023-09-30T00:40:07;28.87;;;14.30;;
8042;SDS011;4064;48.132;11.366;2023-09-30T00:42:37;29.97;;;13.33;;
8042;SDS011;4064;48.132;11.366;2023-09-30T00:45:03;23.10;;;12.90;;
8042;SDS011;4064;48.132;11.366;2023-09-30T00:47:30;27.20;;;12.43;;
8042;SDS011;4064;48.132;11.366;2023-09-30T00:49:56;24.67;;;13.20;;
8042;SDS011;4064;48.132;11.366;2023-09-30T00:52:22;23.47;;;13.70;;
8042;SDS011;4064;48.132;11.366;2023-09-30T00:54:48;26.80;;;13.07;;
8042;SDS011;4064;48.132;11.366;2023-09-30T00:57:16;26.77;;;13.07;;
8042;SDS011;4064;48.132;11.366;2023-09-30T00:59:45;24.97;;;12.27;;
8042;SDS011;4064;48.132;11.366;2023-09-30T01:02:13;31.00;;;15.00;;
8042;SDS011;4064;48.132;11.366;2023-09-30T01:04:39;25.40;;;12.83;;
8042;SDS011;4064;48.132;11.366;2023-09-30T01:07:05;25.50;;;14.20;;
8042;SDS011;4064;48.132;11.366;2023-09-30T01:09:31;25.40;;;12.93;;
8042;SDS011;4064;48.132;11.366;2023-09-30T01:11:58;28.77;;;15.00;;
8042;SDS011;4064;48.132;11.366;2023-09-30T01:16:50;25.10;;;14.37;;
8042;SDS011;4064;48.132;11.366;2023-09-30T01:19:16;27.00;;;13.60;;
8042;SDS011;4064;48.132;11.366;2023-09-30T01:21:42;25.67;;;13.57;;
8042;SDS011;4064;48.132;11.366;2023-09-30T01:24:13;28.00;;;13.17;;
8042;SDS011;4064;48.132;11.366;2023-09-30T01:26:39;26.53;;;14.10;;
8042;SDS011;4064;48.132;11.366;2023-09-30T01:29:05;21.50;;;11.60;;
8042;SDS011;4064;48.132;11.366;2023-09-30T01:31:31;28.07;;;14.13;;
8042;SDS011;4064;48.132;11.366;2023-09-30T01:33:56;24.23;;;12.60;;
8042;SDS011;4064;48.132;11.366;2023-09-30T01:36:22;22.17;;;11.90;;
8042;SDS011;4064;48.132;11.366;2023-09-30T01:38:48;21.87;;;13.33;;
8042;SDS011;4064;48.132;11.366;2023-09-30T01:41:13;24.03;;;13.17;;
8042;SDS011;4064;48.132;11.366;2023-09-30T01:43:39;25.33;;;12.43;;
8042;SDS011;4064;48.132;11.366;2023-09-30T01:46:05;22.33;;;13.20;;
8042;SDS011;4064;48.132;11.366;2023-09-30T01:48:31;25.50;;;12.77;;
8042;SDS011;4064;48.132;11.366;2023-09-30T01:50:57;24.20;;;11.40;;
8042;SDS011;4064;48.132;11.366;2023-09-30T01:53:22;20.30;;;10.77;;
8042;SDS011;4064;48.132;11.366;2023-09-30T01:55:48;24.97;;;13.93;;
8042;SDS011;4064;48.132;11.366;2023-09-30T01:58:14;23.47;;;10.97;;
8042;SDS011;4064;48.132;11.366;2023-09-30T02:00:39;26.80;;;14.00;;
8042;SDS011;4064;48.132;11.366;2023-09-30T02:03:05;25.67;;;13.90;;
8042;SDS011;4064;48.132;11.366;2023-09-30T02:05:32;26.43;;;13.00;;
8042;SDS011;4064;48.132;11.366;2023-09-30T02:07:57;27.83;;;14.23;;
8042;SDS011;4064;48.132;11.366;2023-09-30T02:10:23;20.87;;;12.57;;
8042;SDS011;4064;48.132;11.366;2023-09-30T02:12:49;28.03;;;12.80;;
8042;SDS011;4064;48.132;11.366;2023-09-30T02:15:14;26.37;;;14.30;;
8042;SDS011;4064;48.132;11.366;2023-09-30T02:17:41;24.80;;;13.47;;
8042;SDS011;4064;48.132;11.366;2023-09-30T02:20:10;25.00;;;13.23;;
8042;SDS011;4064;48.132;11.366;2023-09-30T02:22:40;24.80;;;13.37;;
8042;SDS011;4064;48.132;11.366;2023-09-30T02:25:07;27.67;;;12.50;;
8042;SDS011;4064;48.132;11.366;2023-09-30T02:27:33;23.67;;;12.73;;
8042;SDS011;4064;48.132;11.366;2023-09-30T02:29:59;23.40;;;12.80;;
8042;SDS011;4064;48.132;11.366;2023-09-30T02:32:25;26.47;;;14.43;;
8042;SDS011;4064;48.132;11.366;2023-09-30T02:34:50;21.17;;;11.80;;
8042;SDS011;4064;48.132;11.366;2023-09-30T02:37:16;25.63;;;12.80;;
8042;SDS011;4064;48.132;11.366;2023-09-30T02:39:43;23.50;;;13.87;;
8042;SDS011;4064;48.132;11.366;2023-09-30T02:42:09;24.70;;;13.30;;
8042;SDS011;4064;48.132;11.366;2023-09-30T02:44:35;30.57;;;13.70;;
8042;SDS011;4064;48.132;11.366;2023-09-30T02:47:01;24.30;;;12.30;;
8042;SDS011;4064;48.132;11.366;2023-09-30T02:49:26;23.23;;;12.93;;
8042;SDS011;4064;48.132;11.366;2023-09-30T02:51:52;27.57;;;11.60;;
8042;SDS011;4064;48.132;11.366;2023-09-30T02:54:18;24.03;;;12.40;;
8042;SDS011;4064;48.132;11.366;2023-09-30T02:56:44;29.63;;;13.37;;
8042;SDS011;4064;48.132;11.366;2023-09-30T02:59:11;25.93;;;11.93;;
8042;SDS011;4064;48.132;11.366;2023-09-30T03:01:38;24.87;;;11.00;;
8042;SDS011;4064;48.132;11.366;2023-09-30T03:04:04;24.70;;;12.60;;
8042;SDS011;4064;48.132;11.366;2023-09-30T03:06:32;27.27;;;11.10;;
8042;SDS011;4064;48.132;11.366;2023-09-30T03:09:03;20.67;;;12.10;;
8042;SDS011;4064;48.132;11.366;2023-09-30T03:11:29;22.47;;;11.93;;
8042;SDS011;4064;48.132;11.366;2023-09-30T03:13:56;27.60;;;12.10;;
8042;SDS011;4064;48.132;11.366;2023-09-30T03:16:22;23.80;;;11.90;;
8042;SDS011;4064;48.132;11.366;2023-09-30T03:18:49;26.50;;;12.17;;
8042;SDS011;4064;48.132;11.366;2023-09-30T03:21:15;23.50;;;11.37;;
8042;SDS011;4064;48.132;11.366;2023-09-30T03:23:42;23.67;;;12.17;;
8042;SDS011;4064;48.132;11.366;2023-09-30T03:26:08;24.43;;;13.43;;
8042;SDS011;4064;48.132;11.366;2023-09-30T03:28:35;21.03;;;11.37;;
8042;SDS011;4064;48.132;11.366;2023-09-30T03:31:03;22.37;;;11.90;;
8042;SDS011;4064;48.132;11.366;2023-09-30T03:33:30;26.37;;;11.80;;
8042;SDS011;4064;48.132;11.366;2023-09-30T03:35:57;24.10;;;10.83;;
8042;SDS011;4064;48.132;11.366;2023-09-30T03:38:23;24.20;;;12.33;;
8042;SDS011;4064;48.132;11.366;2023-09-30T03:40:50;21.67;;;10.93;;
8042;SDS011;4064;48.132;11.366;2023-09-30T03:43:18;20.37;;;11.50;;
8042;SDS011;4064;48.132;11.366;2023-09-30T03:45:46;23.80;;;11.40;;
8042;SDS011;4064;48.132;11.366;2023-09-30T03:48:12;21.23;;;12.93;;
8042;SDS011;4064;48.132;11.366;2023-09-30T03:50:37;22.20;;;12.00;;
8042;SDS011;4064;48.132;11.366;2023-09-30T03:53:03;23.93;;;10.83;;
8042;SDS011;4064;48.132;11.366;2023-09-30T03:55:32;20.60;;;10.60;;
8042;SDS011;4064;48.132;11.366;2023-09-30T03:57:59;24.13;;;10.53;;
8042;SDS011;4064;48.132;11.366;2023-09-30T04:00:25;25.50;;;12.00;;
8042;SDS011;4064;48.132;11.366;2023-09-30T04:02:51;21.33;;;11.70;;
8042;SDS011;4064;48.132;11.366;2023-09-30T04:05:23;18.77;;;11.73;;
8042;SDS011;4064;48.132;11.366;2023-09-30T04:08:01;20.73;;;12.50;;
8042;SDS011;4064;48.132;11.366;2023-09-30T04:10:28;23.87;;;11.07;;
8042;SDS011;4064;48.132;11.366;2023-09-30T04:12:55;21.33;;;11.40;;
8042;SDS011;4064;48.132;11.366;2023-09-30T04:15:21;21.37;;;11.60;;
8042;SDS011;4064;48.132;11.366;2023-09-30T04:17:48;20.77;;;11.07;;
8042;SDS011;4064;48.132;11.366;2023-09-30T04:20:14;24.93;;;11.37;;
8042;SDS011;4064;48.132;11.366;2023-09-30T04:22:48;25.07;;;11.87;;
8042;SDS011;4064;48.132;11.366;2023-09-30T04:25:15;20.37;;;8.77;;
8042;SDS011;4064;48.132;11.366;2023-09-30T04:27:43;18.70;;;9.30;;
8042;SDS011;4064;48.132;11.366;2023-09-30T04:30:09;20.10;;;9.50;;
8042;SDS011;4064;48.132;11.366;2023-09-30T04:32:36;23.50;;;10.27;;
8042;SDS011;4064;48.132;11.366;2023-09-30T04:35:04;21.40;;;10.77;;
8042;SDS011;4064;48.132;11.366;2023-09-30T04:37:30;18.47;;;9.73;;
8042;SDS011;4064;48.132;11.366;2023-09-30T04:39:56;21.93;;;10.53;;
8042;SDS011;4064;48.132;11.366;2023-09-30T04:42:23;25.47;;;10.20;;
8042;SDS011;4064;48.132;11.366;2023-09-30T04:44:50;19.70;;;10.20;;
8042;SDS011;4064;48.132;11.366;2023-09-30T04:47:17;21.67;;;12.67;;
8042;SDS011;4064;48.132;11.366;2023-09-30T04:49:44;21.47;;;11.73;;
8042;SDS011;4064;48.132;11.366;2023-09-30T04:52:10;20.53;;;11.53;;
8042;SDS011;4064;48.132;11.366;2023-09-30T04:54:36;24.13;;;12.33;;
8042;SDS011;4064;48.132;11.366;2023-09-30T04:57:02;23.97;;;11.83;;
8042;SDS011;4064;48.132;11.366;2023-09-30T04:59:27;24.13;;;10.97;;
8042;SDS011;4064;48.132;11.366;2023-09-30T05:01:54;21.10;;;10.73;;
8042;SDS011;4064;48.132;11.366;2023-09-30T05:04:21;21.53;;;10.23;;
8042;SDS011;4064;48.132;11.366;2023-09-30T05:06:49;21.73;;;10.60;;
8042;SDS011;4064;48.132;11.366;2023-09-30T05:09:14;18.30;;;10.10;;
8042;SDS011;4064;48.132;11.366;2023-09-30T05:11:40;21.83;;;10.53;;
8042;SDS011;4064;48.132;11.366;2023-09-30T05:14:06;22.07;;;11.40;;
8042;SDS011;4064;48.132;11.366;2023-09-30T05:16:31;21.27;;;9.77;;
8042;SDS011;4064;48.132;11.366;2023-09-30T05:18:57;21.97;;;11.17;;
8042;SDS011;4064;48.132;11.366;2023-09-30T05:21:23;22.47;;;10.73;;
8042;SDS011;4064;48.132;11.366;2023-09-30T05:23:49;19.90;;;10.37;;
8042;SDS011;4064;48.132;11.366;2023-09-30T05:26:15;18.60;;;10.17;;
8042;SDS011;4064;48.132;11.366;2023-09-30T05:28:41;17.83;;;9.87;;
8042;SDS011;4064;48.132;11.366;2023-09-30T05:31:07;21.90;;;10.03;;
8042;SDS011;4064;48.132;11.366;2023-09-30T05:33:33;21.63;;;9.93;;
8042;SDS011;4064;48.132;11.366;2023-09-30T05:36:01;18.53;;;10.80;;
8042;SDS011;4064;48.132;11.366;2023-09-30T05:38:28;17.63;;;10.57;;
8042;SDS011;4064;48.132;11.366;2023-09-30T05:40:56;19.30;;;9.47;;
8042;SDS011;4064;48.132;11.366;2023-09-30T05:43:23;18.70;;;9.53;;
8042;SDS011;4064;48.132;11.366;2023-09-30T05:45:50;18.97;;;10.70;;
8042;SDS011;4064;48.132;11.366;2023-09-30T05:48:20;17.63;;;9.97;;
8042;SDS011;4064;48.132;11.366;2023-09-30T05:50:46;19.13;;;11.03;;
8042;SDS011;4064;48.132;11.366;2023-09-30T05:53:12;20.43;;;8.73;;
8042;SDS011;4064;48.132;11.366;2023-09-30T05:55:39;18.50;;;9.73;;
8042;SDS011;4064;48.132;11.366;2023-09-30T05:58:12;18.47;;;8.87;;
8042;SDS011;4064;48.132;11.366;2023-09-30T06:00:41;18.50;;;9.50;;
8042;SDS011;4064;48.132;11.366;2023-09-30T06:03:07;14.93;;;8.83;;
8042;SDS011;4064;48.132;11.366;2023-09-30T06:05:33;12.23;;;7.70;;
8042;SDS011;4064;48.132;11.366;2023-09-30T06:08:01;17.33;;;9.87;;
8042;SDS011;4064;48.132;11.366;2023-09-30T06:10:29;18.70;;;8.73;;
8042;SDS011;4064;48.132;11.366;2023-09-30T06:12:55;22.17;;;10.07;;
8042;SDS011;4064;48.132;11.366;2023-09-30T06:15:22;17.50;;;9.43;;
8042;SDS011;4064;48.132;11.366;2023-09-30T06:17:51;17.00;;;8.60;;
8042;SDS011;4064;48.132;11.366;2023-09-30T06:20:20;21.63;;;9.40;;
8042;SDS011;4064;48.132;11.366;2023-09-30T06:22:47;17.70;;;8.93;;
8042;SDS011;4064;48.132;11.366;2023-09-30T06:25:14;14.77;;;7.87;;
8042;SDS011;4064;48.132;11.366;2023-09-30T06:27:42;14.83;;;6.97;;
8042;SDS011;4064;48.132;11.366;2023-09-30T06:30:12;15.53;;;8.50;;
8042;SDS011;4064;48.132;11.366;2023-09-30T06:32:41;23.50;;;9.33;;
8042;SDS011;4064;48.132;11.366;2023-09-30T06:35:07;14.73;;;8.57;;
8042;SDS011;4064;48.132;11.366;2023-09-30T06:37:39;20.87;;;9.43;;
8042;SDS011;4064;48.132;11.366;2023-09-30T06:40:06;15.10;;;7.60;;
8042;SDS011;4064;48.132;11.366;2023-09-30T06:42:33;16.50;;;8.00;;
8042;SDS011;4064;48.132;11.366;2023-09-30T06:45:04;21.63;;;9.83;;
8042;SDS011;4064;48.132;11.366;2023-09-30T06:47:31;18.17;;;7.90;;
8042;SDS011;4064;48.132;11.366;2023-09-30T06:49:59;14.23;;;8.40;;
8042;SDS011;4064;48.132;11.366;2023-09-30T06:52:37;15.33;;;7.33;;
8042;SDS011;4064;48.132;11.366;2023-09-30T06:55:04;13.97;;;7.73;;
8042;SDS011;4064;48.132;11.366;2023-09-30T06:57:34;20.80;;;9.53;;
8042;SDS011;4064;48.132;11.366;2023-09-30T07:00:08;16.47;;;8.30;;
8042;SDS011;4064;48.132;11.366;2023-09-30T07:02:35;14.93;;;7.27;;
8042;SDS011;4064;48.132;11.366;2023-09-30T07:05:05;14.07;;;9.73;;
8042;SDS011;4064;48.132;11.366;2023-09-30T07:07:34;14.00;;;7.60;;
8042;SDS011;4064;48.132;11.366;2023-09-30T07:09:59;17.53;;;8.47;;
8042;SDS011;4064;48.132;11.366;2023-09-30T07:12:25;14.27;;;8.33;;
8042;SDS011;4064;48.132;11.366;2023-09-30T07:14:51;15.77;;;7.37;;
8042;SDS011;4064;48.132;11.366;2023-09-30T07:17:18;15.83;;;7.33;;
8042;SDS011;4064;48.132;11.366;2023-09-30T07:19:43;13.63;;;7.60;;
8042;SDS011;4064;48.132;11.366;2023-09-30T07:22:09;19.43;;;7.20;;
8042;SDS011;4064;48.132;11.366;2023-09-30T07:24:35;12.63;;;7.17;;
8042;SDS011;4064;48.132;11.366;2023-09-30T07:27:00;13.13;;;7.27;;
8042;SDS011;4064;48.132;11.366;2023-09-30T07:29:27;15.17;;;6.80;;
8042;SDS011;4064;48.132;11.366;2023-09-30T07:31:53;12.07;;;6.20;;
8042;SDS011;4064;48.132;11.366;2023-09-30T07:34:18;11.30;;;6.63;;
8042;SDS011;4064;48.132;11.366;2023-09-30T07:36:44;12.03;;;5.67;;
8042;SDS011;4064;48.132;11.366;2023-09-30T07:39:11;9.67;;;6.17;;
8042;SDS011;4064;48.132;11.366;2023-09-30T07:41:36;12.40;;;6.43;;
8042;SDS011;4064;48.132;11.366;2023-09-30T07:44:02;13.30;;;7.10;;
8042;SDS011;4064;48.132;11.366;2023-09-30T07:46:29;12.20;;;6.40;;
8042;SDS011;4064;48.132;11.366;2023-09-30T07:48:55;10.07;;;5.80;;
8042;SDS011;4064;48.132;11.366;2023-09-30T07:51:21;9.10;;;5.97;;
8042;SDS011;4064;48.132;11.366;2023-09-30T07:53:47;14.93;;;5.50;;
8042;SDS011;4064;48.132;11.366;2023-09-30T07:56:13;12.40;;;5.60;;
8042;SDS011;4064;48.132;11.366;2023-09-30T07:58:39;10.33;;;5.60;;
8042;SDS011;4064;48.132;11.366;2023-09-30T08:01:04;9.43;;;5.67;;
8042;SDS011;4064;48.132;11.366;2023-09-30T08:03:32;9.27;;;5.50;;
8042;SDS011;4064;48.132;11.366;2023-09-30T08:05:59;9.57;;;5.20;;
8042;SDS011;4064;48.132;11.366;2023-09-30T08:08:25;13.77;;;7.37;;
8042;SDS011;4064;48.132;11.366;2023-09-30T08:10:51;8.20;;;5.80;;
8042;SDS011;4064;48.132;11.366;2023-09-30T08:13:21;11.13;;;6.57;;
8042;SDS011;4064;48.132;11.366;2023-09-30T08:15:48;12.80;;;6.00;;
8042;SDS011;4064;48.132;11.366;2023-09-30T08:18:15;13.40;;;5.83;;
8042;SDS011;4064;48.132;11.366;2023-09-30T08:20:40;11.20;;;5.50;;
8042;SDS011;4064;48.132;11.366;2023-09-30T08:23:06;8.67;;;5.23;;
8042;SDS011;4064;48.132;11.366;2023-09-30T08:25:32;10.97;;;5.50;;
8042;SDS011;4064;48.132;11.366;2023-09-30T08:27:57;9.60;;;5.37;;
8042;SDS011;4064;48.132;11.366;2023-09-30T08:30:23;10.30;;;5.93;;
8042;SDS011;4064;48.132;11.366;2023-09-30T08:32:49;9.07;;;5.30;;
8042;SDS011;4064;48.132;11.366;2023-09-30T08:35:15;11.00;;;6.80;;
8042;SDS011;4064;48.132;11.366;2023-09-30T08:37:40;11.73;;;7.07;;
8042;SDS011;4064;48.132;11.366;2023-09-30T08:40:06;12.50;;;7.10;;
8042;SDS011;4064;48.132;11.366;2023-09-30T09:06:47;10.60;;;5.90;;
8042;SDS011;4064;48.132;11.366;2023-09-30T09:09:13;9.57;;;5.10;;
8042;SDS011;4064;48.132;11.366;2023-09-30T09:11:41;9.90;;;6.10;;
8042;SDS011;4064;48.132;11.366;2023-09-30T09:14:08;15.40;;;5.80;;
8042;SDS011;4064;48.132;11.366;2023-09-30T09:16:33;14.20;;;6.70;;
8042;SDS011;4064;48.132;11.366;2023-09-30T09:18:59;9.47;;;6.93;;
8042;SDS011;4064;48.132;11.366;2023-09-30T09:21:37;9.90;;;6.10;;
8042;SDS011;4064;48.132;11.366;2023-09-30T09:24:11;11.40;;;6.23;;
8042;SDS011;4064;48.132;11.366;2023-09-30T09:27:11;12.80;;;7.10;;
8042;SDS011;4064;48.132;11.366;2023-09-30T09:29:40;12.53;;;6.43;;
8042;SDS011;4064;48.132;11.366;2023-09-30T09:32:17;10.13;;;5.70;;
8042;SDS011;4064;48.132;11.366;2023-09-30T09:34:43;11.70;;;7.00;;
8042;SDS011;4064;48.132;11.366;2023-09-30T09:37:19;13.30;;;6.40;;
8042;SDS011;4064;48.132;11.366;2023-09-30T09:39:50;14.83;;;6.47;;
8042;SDS011;4064;48.132;11.366;2023-09-30T09:42:27;10.53;;;6.53;;
8042;SDS011;4064;48.132;11.366;2023-09-30T09:44:54;11.47;;;6.90;;
8042;SDS011;4064;48.132;11.366;2023-09-30T09:47:33;11.37;;;6.30;;
8042;SDS011;4064;48.132;11.366;2023-09-30T09:49:59;17.87;;;8.33;;
8042;SDS011;4064;48.132;11.366;2023-09-30T09:52:27;9.83;;;6.30;;
8042;SDS011;4064;48.132;11.366;2023-09-30T09:54:54;10.00;;;6.03;;
8042;SDS011;4064;48.132;11.366;2023-09-30T09:57:20;11.23;;;6.63;;
8042;SDS011;4064;48.132;11.366;2023-09-30T09:59:47;8.40;;;5.17;;
8042;SDS011;4064;48.132;11.366;2023-09-30T10:02:13;13.10;;;7.13;;
8042;SDS011;4064;48.132;11.366;2023-09-30T10:04:44;10.87;;;5.70;;
8042;SDS011;4064;48.132;11.366;2023-09-30T10:07:21;14.70;;;6.63;;
8042;SDS011;4064;48.132;11.366;2023-09-30T10:09:52;10.53;;;5.50;;
8042;SDS011;4064;48.132;11.366;2023-09-30T10:12:19;10.40;;;6.63;;
8042;SDS011;4064;48.132;11.366;2023-09-30T10:14:46;9.17;;;5.30;;
8042;SDS011;4064;48.132;11.366;2023-09-30T10:17:12;11.03;;;5.77;;
8042;SDS011;4064;48.132;11.366;2023-09-30T10:20:23;11.63;;;6.77;;
8042;SDS011;4064;48.132;11.366;2023-09-30T10:22:31;10.80;;;6.60;;
8042;SDS011;4064;48.132;11.366;2023-09-30T10:24:58;8.93;;;5.70;;
8042;SDS011;4064;48.132;11.366;2023-09-30T10:29:56;12.37;;;5.67;;
8042;SDS011;4064;48.132;11.366;2023-09-30T10:33:10;13.10;;;5.47;;
8042;SDS011;4064;48.132;11.366;2023-09-30T10:35:18;10.10;;;5.40;;
8042;SDS011;4064;48.132;11.366;2023-09-30T10:38:49;12.70;;;6.20;;
8042;SDS011;4064;48.132;11.366;2023-09-30T10:40:58;8.40;;;4.77;;
8042;SDS011;4064;48.132;11.366;2023-09-30T10:43:34;10.50;;;5.37;;
8042;SDS011;4064;48.132;11.366;2023-09-30T10:46:47;9.50;;;4.60;;
8042;SDS011;4064;48.132;11.366;2023-09-30T10:48:54;9.30;;;4.77;;
8042;SDS011;4064;48.132;11.366;2023-09-30T10:51:20;9.50;;;4.80;;
8042;SDS011;4064;48.132;11.366;2023-09-30T10:53:54;7.93;;;5.63;;
8042;SDS011;4064;48.132;11.366;2023-09-30T10:56:31;12.17;;;5.80;;
8042;SDS011;4064;48.132;11.366;2023-09-30T10:58:58;12.23;;;6.57;;
8042;SDS011;4064;48.132;11.366;2023-09-30T11:01:25;9.97;;;6.23;;
8042;SDS011;4064;48.132;11.366;2023-09-30T11:03:58;10.30;;;5.50;;
8042;SDS011;4064;48.132;11.366;2023-09-30T11:06:28;7.87;;;5.40;;
8042;SDS011;4064;48.132;11.366;2023-09-30T11:08:55;7.47;;;5.20;;
8042;SDS011;4064;48.132;11.366;2023-09-30T11:16:48;7.77;;;4.70;;
8042;SDS011;4064;48.132;11.366;2023-09-30T11:19:14;10.37;;;5.30;;
8042;SDS011;4064;48.132;11.366;2023-09-30T11:21:40;9.00;;;5.10;;
8042;SDS011;4064;48.132;11.366;2023-09-30T11:24:08;12.60;;;6.17;;
8042;SDS011;4064;48.132;11.366;2023-09-30T11:26:34;11.17;;;5.60;;
8042;SDS011;4064;48.132;11.366;2023-09-30T11:29:07;9.37;;;5.40;;
8042;SDS011;4064;48.132;11.366;2023-09-30T11:31:41;11.10;;;5.57;;
8042;SDS011;4064;48.132;11.366;2023-09-30T11:34:08;10.17;;;6.80;;
8042;SDS011;4064;48.132;11.366;2023-09-30T11:36:35;10.30;;;5.87;;
8042;SDS011;4064;48.132;11.366;2023-09-30T11:39:02;10.20;;;4.97;;
8042;SDS011;4064;48.132;11.366;2023-09-30T11:41:38;16.70;;;6.97;;
8042;SDS011;4064;48.132;11.366;2023-09-30T11:44:07;9.33;;;6.23;;
8042;SDS011;4064;48.132;11.366;2023-09-30T11:47:08;12.07;;;6.10;;
8042;SDS011;4064;48.132;11.366;2023-09-30T11:49:37;12.07;;;6.80;;
8042;SDS011;4064;48.132;11.366;2023-09-30T11:52:04;9.73;;;5.97;;
8042;SDS011;4064;48.132;11.366;2023-09-30T11:54:35;14.47;;;7.67;;
8042;SDS011;4064;48.132;11.366;2023-09-30T11:57:06;18.67;;;9.50;;
8042;SDS011;4064;48.132;11.366;2023-09-30T11:59:36;10.73;;;5.80;;
8042;SDS011;4064;48.132;11.366;2023-09-30T12:02:03;15.07;;;7.43;;
8042;SDS011;4064;48.132;11.366;2023-09-30T12:04:30;12.80;;;7.17;;
8042;SDS011;4064;48.132;11.366;2023-09-30T12:06:56;10.43;;;5.30;;
8042;SDS011;4064;48.132;11.366;2023-09-30T12:09:22;10.20;;;6.43;;
8042;SDS011;4064;48.132;11.366;2023-09-30T12:11:52;12.83;;;7.07;;
8042;SDS011;4064;48.132;11.366;2023-09-30T12:14:18;9.60;;;6.60;;
8042;SDS011;4064;48.132;11.366;2023-09-30T12:16:47;9.03;;;5.80;;
8042;SDS011;4064;48.132;11.366;2023-09-30T12:19:14;14.00;;;6.70;;
8042;SDS011;4064;48.132;11.366;2023-09-30T12:21:41;10.20;;;6.37;;
8042;SDS011;4064;48.132;11.366;2023-09-30T12:24:07;16.43;;;7.03;;
8042;SDS011;4064;48.132;11.366;2023-09-30T12:26:39;12.00;;;7.00;;
8042;SDS011;4064;48.132;11.366;2023-09-30T12:29:06;13.57;;;7.67;;
8042;SDS011;4064;48.132;11.366;2023-09-30T12:31:34;12.57;;;6.67;;
8042;SDS011;4064;48.132;11.366;2023-09-30T12:33:59;11.33;;;7.03;;
8042;SDS011;4064;48.132;11.366;2023-09-30T12:36:25;12.77;;;7.67;;
8042;SDS011;4064;48.132;11.366;2023-09-30T12:38:51;15.23;;;8.97;;
8042;SDS011;4064;48.132;11.366;2023-09-30T12:41:16;11.73;;;7.77;;
8042;SDS011;4064;48.132;11.366;2023-09-30T12:43:44;11.40;;;7.40;;
8042;SDS011;4064;48.132;11.366;2023-09-30T12:46:10;13.87;;;7.93;;
8042;SDS011;4064;48.132;11.366;2023-09-30T12:48:38;9.73;;;6.37;;
8042;SDS011;4064;48.132;11.366;2023-09-30T12:51:04;11.47;;;6.67;;
8042;SDS011;4064;48.132;11.366;2023-09-30T12:53:31;13.40;;;7.33;;
8042;SDS011;4064;48.132;11.366;2023-09-30T12:56:00;13.40;;;7.40;;
8042;SDS011;4064;48.132;11.366;2023-09-30T12:58:26;13.60;;;7.70;;
8042;SDS011;4064;48.132;11.366;2023-09-30T13:00:55;13.93;;;7.37;;
8042;SDS011;4064;48.132;11.366;2023-09-30T13:03:22;13.57;;;6.80;;
8042;SDS011;4064;48.132;11.366;2023-09-30T13:05:48;14.17;;;7.20;;
8042;SDS011;4064;48.132;11.366;2023-09-30T13:08:15;12.30;;;6.90;;
8042;SDS011;4064;48.132;11.366;2023-09-30T13:10:41;12.43;;;7.73;;
8042;SDS011;4064;48.132;11.366;2023-09-30T13:13:06;12.33;;;7.97;;
8042;SDS011;4064;48.132;11.366;2023-09-30T13:15:32;12.23;;;6.40;;
8042;SDS011;4064;48.132;11.366;2023-09-30T13:17:58;12.13;;;6.47;;
8042;SDS011;4064;48.132;11.366;2023-09-30T13:20:24;11.97;;;6.50;;
8042;SDS011;4064;48.132;11.366;2023-09-30T13:22:50;11.87;;;6.70;;
8042;SDS011;4064;48.132;11.366;2023-09-30T13:25:16;12.73;;;7.00;;
8042;SDS011;4064;48.132;11.366;2023-09-30T13:27:42;15.30;;;7.10;;
8042;SDS011;4064;48.132;11.366;2023-09-30T13:30:08;11.47;;;7.10;;
8042;SDS011;4064;48.132;11.366;2023-09-30T13:32:34;12.80;;;7.27;;
8042;SDS011;4064;48.132;11.366;2023-09-30T13:35:06;14.00;;;7.93;;
8042;SDS011;4064;48.132;11.366;2023-09-30T13:37:32;12.20;;;7.23;;
8042;SDS011;4064;48.132;11.366;2023-09-30T13:40:01;12.17;;;7.13;;
8042;SDS011;4064;48.132;11.366;2023-09-30T13:42:29;10.50;;;6.53;;
8042;SDS011;4064;48.132;11.366;2023-09-30T13:44:55;9.17;;;6.07;;
8042;SDS011;4064;48.132;11.366;2023-09-30T13:47:25;13.37;;;7.30;;
8042;SDS011;4064;48.132;11.366;2023-09-30T13:49:51;14.33;;;7.07;;
8042;SDS011;4064;48.132;11.366;2023-09-30T13:52:17;12.30;;;7.47;;
8042;SDS011;4064;48.132;11.366;2023-09-30T13:54:43;11.70;;;6.97;;
8042;SDS011;4064;48.132;11.366;2023-09-30T13:57:09;12.17;;;8.10;;
8042;SDS011;4064;48.132;11.366;2023-09-30T13:59:35;11.80;;;5.83;;
8042;SDS011;4064;48.132;11.366;2023-09-30T14:02:01;14.77;;;7.70;;
8042;SDS011;4064;48.132;11.366;2023-09-30T14:04:29;9.50;;;6.23;;
8042;SDS011;4064;48.132;11.366;2023-09-30T14:06:57;14.70;;;7.00;;
8042;SDS011;4064;48.132;11.366;2023-09-30T14:09:25;8.73;;;6.30;;
8042;SDS011;4064;48.132;11.366;2023-09-30T14:11:52;14.20;;;6.80;;
8042;SDS011;4064;48.132;11.366;2023-09-30T14:14:18;13.63;;;7.90;;
8042;SDS011;4064;48.132;11.366;2023-09-30T14:16:44;13.53;;;8.03;;
8042;SDS011;4064;48.132;11.366;2023-09-30T14:19:10;13.63;;;6.13;;
8042;SDS011;4064;48.132;11.366;2023-09-30T14:21:35;10.10;;;6.60;;
8042;SDS011;4064;48.132;11.366;2023-09-30T14:24:01;10.30;;;6.27;;
8042;SDS011;4064;48.132;11.366;2023-09-30T14:26:27;13.07;;;7.50;;
8042;SDS011;4064;48.132;11.366;2023-09-30T14:28:54;15.27;;;7.20;;
8042;SDS011;4064;48.132;11.366;2023-09-30T14:31:19;12.43;;;6.97;;
8042;SDS011;4064;48.132;11.366;2023-09-30T14:33:46;15.53;;;7.23;;
8042;SDS011;4064;48.132;11.366;2023-09-30T14:36:11;10.43;;;6.70;;
8042;SDS011;4064;48.132;11.366;2023-09-30T14:38:37;9.83;;;7.20;;
8042;SDS011;4064;48.132;11.366;2023-09-30T14:41:06;12.17;;;6.47;;
8042;SDS011;4064;48.132;11.366;2023-09-30T14:43:33;12.73;;;7.67;;
8042;SDS011;4064;48.132;11.366;2023-09-30T14:46:01;10.17;;;6.87;;
8042;SDS011;4064;48.132;11.366;2023-09-30T14:48:28;11.50;;;6.73;;
8042;SDS011;4064;48.132;11.366;2023-09-30T14:50:54;12.80;;;7.20;;
8042;SDS011;4064;48.132;11.366;2023-09-30T14:53:20;11.60;;;6.33;;
8042;SDS011;4064;48.132;11.366;2023-09-30T14:55:46;13.13;;;8.00;;
8042;SDS011;4064;48.132;11.366;2023-09-30T14:58:12;15.77;;;8.30;;
8042;SDS011;4064;48.132;11.366;2023-09-30T15:00:37;12.60;;;8.00;;
8042;SDS011;4064;48.132;11.366;2023-09-30T15:03:03;12.73;;;6.60;;
8042;SDS011;4064;48.132;11.366;2023-09-30T15:05:30;12.87;;;7.47;;
8042;SDS011;4064;48.132;11.366;2023-09-30T15:07:59;13.17;;;6.83;;
8042;SDS011;4064;48.132;11.366;2023-09-30T15:10:27;12.90;;;6.40;;
8042;SDS011;4064;48.132;11.366;2023-09-30T15:12:53;12.17;;;7.63;;
8042;SDS011;4064;48.132;11.366;2023-09-30T15:15:19;12.63;;;6.90;;
8042;SDS011;4064;48.132;11.366;2023-09-30T15:17:45;8.83;;;6.00;;
8042;SDS011;4064;48.132;11.366;2023-09-30T15:20:11;12.67;;;7.43;;